الصفحة الرئيسية
METAR-TAF:

METAR-TAF

مطار :

Antofagasta, تشيلي

دائرة عرض: 23-26S, خط طول: 070-26W, ارتفاع: 135 متر

مراقبة الطقس الحالي

تاريخ ووقت الإصدار 57 دقيقة قبل الساعة 02:00UTC
ريح 12 عقدة من الجنوب/الجنوب الغربي
درجة الحرارة 14°درجة مئوية
الرطوبة 82%
ضغط 1015 hPa
الرؤية 10 كم أو أكثر
غيوم قليلة على ارتفاع 1500 قدم

METAR: SCFA 260200Z 20012KT 9999 FEW015 14/11 Q1015 NOSIG

زمن: 22:57 (02:57 UTC)

توقعات

تاريخ ووقت الإصدار 4ساعات و 35 دقيقة قبل الساعة 22:22UTC
التوقعات صالحة من26 الساعة 00 UTC إلى 26 الساعة 24 UTC
ريح 14 عقدة من الجنوب/الجنوب الغربي
الرؤية 10 كم أو أكثر
غيوم قليلة على ارتفاع 2500 قدم
أصبح
من 26 الساعة 02 UTC إلى 26 الساعة 04 UTC
ريح 4 عقدة من الجنوب/الجنوب الغربي
غيوم مفككة على ارتفاع 1800 قدم
أصبح
من 26 الساعة 15 UTC إلى 26 الساعة 17 UTC
ريح 12 عقدة من الجنوب/الجنوب الغربي
غيوم قليلة على ارتفاع 2500 قدم
أصبح
من 26 الساعة 22 UTC إلى 26 الساعة 24 UTC
غيوم مفككة على ارتفاع 1800 قدم

TAF: SCFA 252222Z 2600/2624 20014KT 9999 FEW025 TN14/2610Z TX16/2618Z BECMG 2602/2604 20004KT BKN018 BECMG 2615/2617 20012KT FEW025 BECMG 2622/2624 BKN018

أرصاد الطقس والتوقعات من أكثر من 4000 مطار (تقارير الطقس للمطار METAR والتنبؤ بالطقس بالمطارTAF).

المحطات المتاحة هي النقط الصفراء والحمراء على الخريطة.

حرك المؤشر فوق النقطة لمعرفة اسم المحطة.

ثم انقر لمعرفة أرصاد وتوقعات الطقس.

لتغيير الخارطة: اضغط على الأزرار الخضراء مع رمز الصليب الأسود للتكبير. على الزر الأخضر مع شرطة للتصغير، أو على الأسهم الخضراء للخرائط المجاورة.


METAR-TAF: